Time;durP1;ratioP1;P1;durP2;ratioP2;P2;SDS_P1;SDS_P2;PMS_P1;PMS_P2;Temp;Humidity;BMP_temperature;BMP_pressure;BME280_temperature;BME280_humidity;BME280_pressure;Samples;Min_cycle;Max_cycle;Signal;HPM_P1;HPM_P2
2022/11/25 00:01:20;;;;;;;2.80;0.77;;;7.40;99.90;;;;;;5053866;28;20450;-70
2022/11/25 00:03:46;;;;;;;3.92;1.52;;;7.20;99.90;;;;;;5036019;28;20498;-69
2022/11/25 00:06:13;;;;;;;5.00;1.73;;;7.90;99.90;;;;;;5053879;28;20483;-70
2022/11/25 00:08:40;;;;;;;8.02;1.60;;;7.30;99.90;;;;;;5035911;28;20048;-70
2022/11/25 00:11:07;;;;;;;3.15;1.40;;;7.30;99.90;;;;;;5019143;28;20041;-70
2022/11/25 00:13:33;;;;;;;3.35;1.08;;;7.30;99.90;;;;;;5035825;28;20041;-70
2022/11/25 00:16:04;;;;;;;7.78;1.48;;;7.20;99.90;;;;;;5053682;28;20112;-69
2022/11/25 00:18:30;;;;;;;3.17;1.13;;;7.10;99.90;;;;;;5053613;28;20029;-70
2022/11/25 00:20:56;;;;;;;7.57;1.70;;;7.10;99.90;;;;;;5053295;28;20037;-71
2022/11/25 00:23:23;;;;;;;3.92;1.60;;;7.10;99.90;;;;;;5035704;28;20048;-70
2022/11/25 00:25:49;;;;;;;3.05;1.58;;;7.10;99.90;;;;;;5035674;28;20049;-70
2022/11/25 00:28:16;;;;;;;5.60;1.30;;;7.10;99.90;;;;;;5053370;28;20380;-70
2022/11/25 00:30:42;;;;;;;3.20;1.20;;;7.10;99.90;;;;;;5053130;28;20090;-70
2022/11/25 00:33:07;;;;;;;6.07;1.50;;;7.10;99.90;;;;;;5035305;28;20049;-70
2022/11/25 00:35:36;;;;;;;4.45;2.00;;;7.10;99.90;;;;;;5053373;28;20041;-70
2022/11/25 00:38:02;;;;;;;4.18;1.67;;;7.00;99.90;;;;;;5035067;28;20060;-70
2022/11/25 00:40:28;;;;;;;4.57;1.83;;;7.00;99.90;;;;;;5053097;28;20131;-70
2022/11/25 00:45:38;;;;;;;5.63;1.52;;;7.00;99.90;;;;;;5035401;28;20489;-70
2022/11/25 00:48:04;;;;;;;7.15;1.85;;;7.00;99.90;;;;;;5053253;28;20087;-70
2022/11/25 00:50:30;;;;;;;3.72;1.33;;;7.00;99.90;;;;;;5052896;28;20076;-70
2022/11/25 00:52:55;;;;;;;4.97;1.58;;;7.00;99.90;;;;;;5035347;28;20041;-70
2022/11/25 00:55:21;;;;;;;9.43;1.77;;;7.00;99.90;;;;;;5035422;28;20053;-70
2022/11/25 00:57:47;;;;;;;5.65;1.60;;;7.00;99.90;;;;;;5053235;28;20111;-70
2022/11/25 01:00:13;;;;;;;2.92;1.13;;;7.20;99.90;;;;;;5052715;28;20057;-69
2022/11/25 01:02:38;;;;;;;2.28;1.48;;;7.10;99.90;;;;;;5053117;28;20501;-71
2022/11/25 01:05:04;;;;;;;6.57;1.75;;;7.10;99.90;;;;;;5035005;28;20082;-70
2022/11/25 01:07:30;;;;;;;4.38;1.58;;;7.10;99.90;;;;;;5052813;28;20037;-70
2022/11/25 01:09:56;;;;;;;5.35;1.33;;;7.10;99.90;;;;;;5035023;28;20048;-70
2022/11/25 01:12:21;;;;;;;5.43;1.60;;;7.00;99.90;;;;;;5034966;28;20056;-70
2022/11/25 01:14:47;;;;;;;6.05;1.70;;;7.10;99.90;;;;;;5053131;28;20404;-70
2022/11/25 01:17:13;;;;;;;7.82;1.30;;;7.10;99.90;;;;;;5052993;28;20369;-70
2022/11/25 01:19:39;;;;;;;9.35;1.55;;;7.10;99.90;;;;;;5052703;28;20041;-70
2022/11/25 01:22:08;;;;;;;5.93;1.67;;;7.00;99.90;;;;;;5034868;28;20080;-70
2022/11/25 01:24:34;;;;;;;3.35;1.38;;;7.10;99.90;;;;;;5035405;28;20492;-70
2022/11/25 01:27:00;;;;;;;3.97;1.40;;;6.90;99.90;;;;;;5052972;28;20067;-70
2022/11/25 01:29:25;;;;;;;8.52;2.17;;;7.00;99.90;;;;;;5052653;28;20045;-70
2022/11/25 01:31:54;;;;;;;6.45;1.58;;;7.00;99.90;;;;;;5052967;28;20143;-69
2022/11/25 01:34:23;;;;;;;3.83;1.27;;;6.90;99.90;;;;;;5052927;28;20048;-70
2022/11/25 01:36:49;;;;;;;3.65;1.70;;;6.90;99.90;;;;;;5034881;28;20424;-69
2022/11/25 01:39:22;;;;;;;5.82;1.50;;;6.90;99.90;;;;;;5052866;28;20044;-69
2022/11/25 01:41:48;;;;;;;5.97;1.40;;;6.90;99.90;;;;;;5052819;28;20135;-70
2022/11/25 01:44:24;;;;;;;8.25;1.52;;;6.90;99.90;;;;;;5034744;28;20033;-70
2022/11/25 01:46:50;;;;;;;4.30;1.92;;;6.90;99.90;;;;;;5018255;28;20145;-69
2022/11/25 01:49:29;;;;;;;11.23;1.83;;;6.90;99.90;;;;;;5053392;28;20052;-70
2022/11/25 01:52:00;;;;;;;6.43;1.75;;;6.80;99.90;;;;;;5056310;28;20041;-70
2022/11/25 01:54:30;;;;;;;4.10;1.52;;;6.90;99.90;;;;;;5038444;28;20505;-70
2022/11/25 01:57:07;;;;;;;4.55;1.45;;;6.90;99.90;;;;;;5056249;28;20045;-70
2022/11/25 01:59:37;;;;;;;4.40;1.80;;;6.90;99.90;;;;;;5055821;28;20630;-70
2022/11/25 02:02:03;;;;;;;4.10;1.88;;;6.90;99.90;;;;;;5038377;28;20048;-69
2022/11/25 02:04:34;;;;;;;3.97;1.35;;;6.80;99.90;;;;;;5056283;28;20037;-70
2022/11/25 02:07:07;;;;;;;7.53;1.25;;;6.90;99.90;;;;;;5055828;28;20045;-70
2022/11/25 02:09:37;;;;;;;5.18;1.10;;;6.90;99.90;;;;;;5037898;28;20076;-70
2022/11/25 02:12:04;;;;;;;1.55;1.17;;;6.90;99.90;;;;;;5055674;28;20037;-70
2022/11/25 02:14:30;;;;;;;5.75;1.67;;;6.90;99.90;;;;;;5038320;28;20069;-70
2022/11/25 02:16:58;;;;;;;3.63;1.65;;;6.90;99.90;;;;;;5038038;28;20056;-70
2022/11/25 02:19:34;;;;;;;3.17;1.27;;;6.90;99.90;;;;;;5055483;28;20080;-71
2022/11/25 02:22:05;;;;;;;6.43;1.35;;;7.00;99.90;;;;;;5055804;28;20037;-70
2022/11/25 02:24:45;;;;;;;4.88;1.90;;;7.10;99.90;;;;;;5055708;28;20077;-70
2022/11/25 02:27:11;;;;;;;5.38;1.40;;;7.00;99.90;;;;;;5055709;28;20041;-71
2022/11/25 02:29:38;;;;;;;6.00;1.42;;;7.30;99.90;;;;;;5055244;28;20052;-69
2022/11/25 02:32:04;;;;;;;6.70;1.83;;;7.40;99.90;;;;;;5037507;28;20465;-71
2022/11/25 02:34:30;;;;;;;6.22;1.15;;;7.00;99.90;;;;;;5055475;28;20033;-71
2022/11/25 02:36:56;;;;;;;7.55;1.50;;;7.00;99.90;;;;;;5020866;28;20099;-71
2022/11/25 02:39:22;;;;;;;8.43;2.08;;;7.00;99.90;;;;;;5055371;28;20055;-71
2022/11/25 02:41:52;;;;;;;4.30;1.50;;;7.30;99.90;;;;;;5055402;28;20376;-71
2022/11/25 02:44:19;;;;;;;5.00;1.38;;;7.00;99.90;;;;;;5055157;28;20059;-69
2022/11/25 02:46:45;;;;;;;7.07;1.70;;;7.00;99.90;;;;;;5055338;28;20047;-69
2022/11/25 02:49:10;;;;;;;11.05;1.65;;;7.00;99.90;;;;;;5055185;28;20041;-68
2022/11/25 02:51:38;;;;;;;6.65;1.25;;;7.70;99.90;;;;;;5054840;28;20047;-68
2022/11/25 02:54:05;;;;;;;3.75;1.25;;;7.00;99.90;;;;;;5037316;28;20064;-68
2022/11/25 02:56:33;;;;;;;2.50;1.35;;;7.10;99.90;;;;;;5055177;28;20472;-69
2022/11/25 02:58:59;;;;;;;3.47;1.23;;;7.00;99.90;;;;;;5036831;28;20049;-69
2022/11/25 03:01:27;;;;;;;8.82;1.60;;;7.10;99.90;;;;;;5053864;28;20076;-69
2022/11/25 03:03:52;;;;;;;3.88;1.48;;;7.10;99.90;;;;;;5054649;28;20049;-69
2022/11/25 03:06:18;;;;;;;2.72;1.00;;;7.10;99.90;;;;;;5037195;28;20124;-69
2022/11/25 03:08:44;;;;;;;2.63;0.95;;;7.10;99.90;;;;;;5054777;28;20037;-68
2022/11/25 03:11:09;;;;;;;4.88;1.45;;;7.10;99.90;;;;;;5054746;28;20075;-68
2022/11/25 03:13:35;;;;;;;6.15;1.25;;;7.10;99.90;;;;;;5054480;28;20438;-69
2022/11/25 03:16:01;;;;;;;5.38;1.42;;;7.10;99.90;;;;;;5020103;28;20052;-69
2022/11/25 03:18:26;;;;;;;8.43;1.88;;;7.20;99.90;;;;;;5054451;28;20037;-68
2022/11/25 03:20:54;;;;;;;7.60;1.77;;;7.20;99.90;;;;;;5020422;28;20080;-69
2022/11/25 03:23:20;;;;;;;2.35;1.25;;;7.20;99.90;;;;;;5054614;28;20045;-68
2022/11/25 03:25:46;;;;;;;4.13;1.15;;;7.20;99.90;;;;;;5054658;28;20072;-68
2022/11/25 03:28:11;;;;;;;5.07;1.58;;;7.20;99.90;;;;;;5019981;28;20072;-69
2022/11/25 03:30:37;;;;;;;5.10;1.45;;;7.30;99.90;;;;;;5036288;28;20048;-68
2022/11/25 03:33:03;;;;;;;3.17;1.48;;;7.20;99.90;;;;;;5036432;28;20037;-68
2022/11/25 03:35:29;;;;;;;5.28;1.52;;;7.30;99.90;;;;;;5054420;28;20039;-68
2022/11/25 03:37:55;;;;;;;4.78;2.10;;;7.30;99.90;;;;;;5053989;28;20041;-69
2022/11/25 03:40:21;;;;;;;2.40;1.35;;;7.30;99.90;;;;;;5054090;28;20161;-68
2022/11/25 03:42:46;;;;;;;2.58;1.38;;;7.30;99.90;;;;;;5054035;28;20099;-69
2022/11/25 03:45:14;;;;;;;5.43;1.92;;;7.30;99.90;;;;;;5036111;28;20048;-68
2022/11/25 03:47:44;;;;;;;6.25;1.75;;;7.30;99.90;;;;;;5019622;28;20111;-69
2022/11/25 03:50:11;;;;;;;2.92;1.48;;;7.30;99.90;;;;;;5019481;28;20049;-68
2022/11/25 03:52:37;;;;;;;9.07;2.58;;;7.30;99.90;;;;;;5054127;28;20045;-69
2022/11/25 03:55:04;;;;;;;7.22;1.85;;;7.30;99.90;;;;;;5053984;28;20514;-69
2022/11/25 03:57:31;;;;;;;11.57;2.33;;;7.30;99.90;;;;;;5054025;28;20120;-68
2022/11/25 03:59:56;;;;;;;5.10;1.90;;;7.30;99.90;;;;;;5053476;28;20051;-68
2022/11/25 04:02:22;;;;;;;4.03;1.67;;;7.30;99.90;;;;;;5053631;28;20120;-68
2022/11/25 04:04:48;;;;;;;6.72;1.63;;;7.30;99.90;;;;;;5053659;28;20475;-68
2022/11/25 04:07:13;;;;;;;4.25;1.88;;;7.40;99.90;;;;;;5053758;28;20120;-68
2022/11/25 04:09:39;;;;;;;6.60;2.03;;;7.90;99.90;;;;;;5053525;28;20091;-68
2022/11/25 04:14:49;;;;;;;4.18;2.00;;;7.40;99.90;;;;;;5053675;28;20037;-68
2022/11/25 04:17:15;;;;;;;4.85;1.85;;;7.40;99.90;;;;;;5053340;28;20381;-68
2022/11/25 04:19:40;;;;;;;3.47;1.65;;;7.40;99.90;;;;;;5053593;28;20037;-68
2022/11/25 04:22:07;;;;;;;8.23;2.22;;;7.40;99.90;;;;;;5035489;28;20068;-68
2022/11/25 04:24:32;;;;;;;10.48;2.47;;;7.40;99.90;;;;;;5035476;28;20045;-68
2022/11/25 04:26:58;;;;;;;3.83;1.95;;;7.40;99.90;;;;;;5035702;28;20499;-68
2022/11/25 04:29:24;;;;;;;4.63;1.92;;;7.40;99.90;;;;;;5053394;28;20049;-68
2022/11/25 04:31:49;;;;;;;5.43;2.08;;;7.40;99.90;;;;;;5035789;28;20068;-68
2022/11/25 04:34:15;;;;;;;5.53;2.15;;;7.40;99.90;;;;;;5053425;28;20041;-68
2022/11/25 04:36:41;;;;;;;9.93;2.78;;;7.40;99.90;;;;;;5053151;28;20123;-68
2022/11/25 04:39:06;;;;;;;6.43;2.05;;;7.40;99.90;;;;;;5053068;28;20174;-68
2022/11/25 04:41:32;;;;;;;6.55;1.67;;;7.40;99.90;;;;;;5053349;28;20128;-68
2022/11/25 04:44:01;;;;;;;7.72;1.67;;;7.40;99.90;;;;;;5053395;28;20068;-68
2022/11/25 04:46:37;;;;;;;9.68;2.17;;;7.40;99.90;;;;;;5053303;28;20037;-68
2022/11/25 04:49:02;;;;;;;5.60;2.15;;;7.40;99.90;;;;;;5018670;28;20110;-68
2022/11/25 04:51:28;;;;;;;6.63;2.15;;;7.50;99.90;;;;;;5035391;28;20044;-68
2022/11/25 04:53:54;;;;;;;7.38;1.75;;;7.50;99.90;;;;;;5035478;28;20073;-68
2022/11/25 04:56:20;;;;;;;6.43;2.00;;;7.50;99.90;;;;;;5053059;28;20041;-68
2022/11/25 05:01:30;;;;;;;8.95;2.00;;;7.50;99.90;;;;;;5052905;28;20132;-68
2022/11/25 05:03:56;;;;;;;5.10;2.13;;;7.50;99.90;;;;;;5053157;28;20076;-68
2022/11/25 05:06:22;;;;;;;5.65;2.22;;;7.50;99.90;;;;;;5034996;28;20585;-69
2022/11/25 05:08:48;;;;;;;8.38;2.10;;;7.40;99.90;;;;;;5053053;28;20088;-68
2022/11/25 05:11:14;;;;;;;9.38;2.42;;;8.10;99.90;;;;;;5053101;28;20433;-68
2022/11/25 05:13:40;;;;;;;3.20;1.80;;;8.00;99.90;;;;;;5035043;28;20037;-68
2022/11/25 05:16:06;;;;;;;6.45;1.95;;;7.40;99.90;;;;;;5053022;28;20051;-68
2022/11/25 05:18:32;;;;;;;3.58;1.73;;;7.40;99.90;;;;;;5034920;28;20202;-68
2022/11/25 05:21:02;;;;;;;4.57;2.03;;;7.40;99.90;;;;;;5053001;28;20112;-68
2022/11/25 05:23:28;;;;;;;8.77;1.80;;;7.40;99.90;;;;;;5053076;28;20373;-68
2022/11/25 05:25:59;;;;;;;7.18;1.88;;;7.40;99.90;;;;;;5056019;28;20037;-69
2022/11/25 05:28:25;;;;;;;5.53;2.15;;;7.40;99.90;;;;;;5038642;28;20037;-68
2022/11/25 05:30:51;;;;;;;4.75;2.10;;;7.40;99.90;;;;;;5056767;28;20041;-68
2022/11/25 05:33:17;;;;;;;8.52;2.30;;;7.40;99.90;;;;;;5038563;28;20043;-68
2022/11/25 05:35:42;;;;;;;6.40;2.38;;;7.40;99.90;;;;;;5056725;28;20029;-68
2022/11/25 05:38:08;;;;;;;4.22;1.73;;;7.40;99.90;;;;;;5056590;28;20037;-68
2022/11/25 05:40:34;;;;;;;8.85;2.47;;;7.50;99.90;;;;;;5056607;28;20041;-68
2022/11/25 05:43:00;;;;;;;9.10;2.90;;;7.50;99.90;;;;;;5056360;28;20032;-68
2022/11/25 05:45:26;;;;;;;5.78;2.08;;;7.60;99.90;;;;;;5038330;28;20041;-68
2022/11/25 05:47:52;;;;;;;7.30;2.70;;;7.50;99.90;;;;;;5056426;28;20045;-68
2022/11/25 05:50:17;;;;;;;3.92;1.80;;;7.60;99.90;;;;;;5038208;28;20119;-68
2022/11/25 05:52:43;;;;;;;5.88;2.70;;;7.70;99.90;;;;;;5038257;28;20422;-68
2022/11/25 05:55:09;;;;;;;7.22;2.55;;;7.70;99.90;;;;;;5038087;28;20045;-69
2022/11/25 05:57:35;;;;;;;5.03;2.47;;;7.70;99.90;;;;;;5056241;28;20503;-67
2022/11/25 06:00:00;;;;;;;6.82;2.78;;;7.70;99.90;;;;;;5034683;28;20390;-67
2022/11/25 06:02:26;;;;;;;5.47;2.88;;;7.80;99.90;;;;;;5035905;28;20037;-67
2022/11/25 06:04:52;;;;;;;4.95;2.45;;;7.80;99.90;;;;;;5036216;28;20056;-67
2022/11/25 06:07:17;;;;;;;4.70;2.17;;;7.80;99.90;;;;;;5036130;28;20395;-67
2022/11/25 06:09:43;;;;;;;4.78;2.40;;;7.90;99.90;;;;;;5034565;28;20475;-67
2022/11/25 06:12:09;;;;;;;6.40;2.72;;;7.90;99.90;;;;;;5035790;28;20042;-68
2022/11/25 06:14:34;;;;;;;7.70;2.92;;;7.90;99.90;;;;;;5034563;28;20043;-67
2022/11/25 06:17:00;;;;;;;20.23;4.13;;;7.90;99.90;;;;;;5036003;28;20076;-69
2022/11/25 06:19:26;;;;;;;8.60;3.25;;;7.90;99.90;;;;;;5034438;28;20125;-68
2022/11/25 06:21:51;;;;;;;5.25;2.70;;;8.00;99.90;;;;;;5035903;28;20492;-67
2022/11/25 06:24:17;;;;;;;7.63;3.08;;;8.00;99.90;;;;;;5035783;28;20066;-68
2022/11/25 06:26:43;;;;;;;6.47;3.00;;;8.00;99.90;;;;;;5017758;28;20120;-68
2022/11/25 06:29:08;;;;;;;6.43;2.78;;;8.00;99.90;;;;;;5035650;28;20400;-66
2022/11/25 06:31:34;;;;;;;14.05;2.80;;;8.00;99.90;;;;;;5035392;28;20033;-67
2022/11/25 06:34:00;;;;;;;5.30;2.70;;;8.10;99.90;;;;;;5034458;28;20041;-65
2022/11/25 06:36:25;;;;;;;6.72;3.40;;;8.00;99.90;;;;;;5035009;28;20087;-64
2022/11/25 06:38:53;;;;;;;7.60;3.10;;;8.00;99.90;;;;;;5035568;28;20049;-65
2022/11/25 06:41:20;;;;;;;4.75;2.30;;;8.00;99.90;;;;;;5035191;28;20049;-67
2022/11/25 06:43:46;;;;;;;8.82;2.33;;;8.40;99.90;;;;;;5035467;28;20048;-66
2022/11/25 06:46:16;;;;;;;5.90;2.92;;;8.00;99.90;;;;;;5035403;28;20045;-65
2022/11/25 06:48:42;;;;;;;6.45;3.28;;;8.10;99.90;;;;;;5035325;28;20072;-69
2022/11/25 06:51:10;;;;;;;9.40;2.70;;;8.50;99.90;;;;;;5017343;28;20038;-66
2022/11/25 06:53:37;;;;;;;5.35;2.40;;;8.00;99.90;;;;;;5035308;28;20480;-64
2022/11/25 06:56:13;;;;;;;6.75;2.45;;;8.00;99.90;;;;;;5035201;28;20041;-66
2022/11/25 06:58:40;;;;;;;3.47;2.10;;;8.00;99.90;;;;;;5039698;28;20530;-64
2022/11/25 07:01:12;;;;;;;5.57;2.35;;;8.00;99.90;;;;;;5036868;28;20045;-66
2022/11/25 07:03:38;;;;;;;6.22;2.72;;;8.00;99.90;;;;;;5055011;28;20037;-66
2022/11/25 07:06:04;;;;;;;3.53;2.13;;;8.00;99.90;;;;;;5054862;28;20060;-67
2022/11/25 07:08:30;;;;;;;6.22;2.08;;;7.90;99.90;;;;;;5054879;28;20049;-67
2022/11/25 07:11:03;;;;;;;3.92;2.63;;;7.90;99.90;;;;;;5054851;28;20041;-67
2022/11/25 07:13:29;;;;;;;5.05;2.42;;;8.00;99.90;;;;;;5054828;28;20099;-66
2022/11/25 07:15:54;;;;;;;2.55;1.95;;;8.10;99.90;;;;;;5054399;28;20435;-65
2022/11/25 07:18:20;;;;;;;7.78;2.45;;;7.90;99.90;;;;;;5054667;28;20043;-65
2022/11/25 07:20:46;;;;;;;3.38;1.90;;;7.90;99.90;;;;;;5054643;28;20404;-65
2022/11/25 07:23:11;;;;;;;4.28;1.83;;;7.90;99.90;;;;;;5054540;28;20117;-66
2022/11/25 07:25:37;;;;;;;4.80;1.83;;;7.90;99.90;;;;;;5054692;28;20083;-66
2022/11/25 07:28:03;;;;;;;3.58;1.80;;;7.90;99.90;;;;;;5054491;28;20399;-66
2022/11/25 07:30:28;;;;;;;5.50;2.30;;;7.90;99.90;;;;;;5054420;28;20060;-66
2022/11/25 07:32:54;;;;;;;5.00;1.90;;;7.90;99.90;;;;;;5054502;28;20037;-65
2022/11/25 07:35:20;;;;;;;3.97;1.80;;;8.00;99.90;;;;;;5054387;28;20427;-65
2022/11/25 07:37:45;;;;;;;4.75;2.05;;;8.00;99.90;;;;;;5036487;28;20099;-65
2022/11/25 07:40:12;;;;;;;3.72;2.25;;;8.00;99.90;;;;;;5054233;28;20048;-67
2022/11/25 07:42:37;;;;;;;6.25;1.55;;;8.00;99.90;;;;;;5036081;28;20049;-65
2022/11/25 07:45:03;;;;;;;6.18;1.95;;;8.00;99.90;;;;;;5036093;28;20055;-66
2022/11/25 07:47:32;;;;;;;5.32;1.73;;;8.00;99.90;;;;;;5035545;28;20044;-64
2022/11/25 07:49:57;;;;;;;3.08;1.42;;;7.90;99.90;;;;;;5036325;28;20072;-65
2022/11/25 07:52:23;;;;;;;5.22;1.58;;;8.50;99.90;;;;;;5054038;28;20511;-65
2022/11/25 07:54:49;;;;;;;4.95;2.15;;;7.90;99.90;;;;;;5053772;28;20503;-65
2022/11/25 07:57:14;;;;;;;4.82;1.35;;;7.80;99.90;;;;;;5036041;28;20063;-67
2022/11/25 07:59:40;;;;;;;4.10;1.77;;;7.80;99.90;;;;;;5053679;28;20110;-66
2022/11/25 08:02:08;;;;;;;5.65;1.85;;;7.80;99.90;;;;;;5052494;28;20128;-65
2022/11/25 08:04:34;;;;;;;11.05;1.55;;;7.70;99.90;;;;;;5036151;28;20063;-64
2022/11/25 08:07:00;;;;;;;3.22;1.70;;;7.70;99.90;;;;;;5035726;28;20175;-68
2022/11/25 08:09:26;;;;;;;3.70;1.30;;;7.70;99.90;;;;;;5053722;28;20124;-65
2022/11/25 08:11:52;;;;;;;4.47;1.30;;;7.70;99.90;;;;;;5053445;28;20048;-67
2022/11/25 08:14:17;;;;;;;4.57;1.73;;;8.00;99.90;;;;;;5053456;28;20048;-65
2022/11/25 08:16:44;;;;;;;3.58;1.13;;;7.70;99.90;;;;;;5053845;28;20041;-67
2022/11/25 08:19:14;;;;;;;1.45;0.95;;;7.80;99.90;;;;;;5035548;28;20048;-68
2022/11/25 08:21:40;;;;;;;6.90;1.80;;;8.00;99.90;;;;;;5053898;28;20526;-64
2022/11/25 08:24:06;;;;;;;3.75;2.03;;;7.80;99.90;;;;;;5053556;28;20106;-66
2022/11/25 08:26:35;;;;;;;3.45;1.10;;;7.80;99.90;;;;;;5035579;28;20048;-64
2022/11/25 08:29:02;;;;;;;3.70;1.85;;;7.80;99.90;;;;;;5053448;28;20044;-66
2022/11/25 08:31:38;;;;;;;2.85;1.35;;;8.00;99.90;;;;;;5053484;28;20037;-67
2022/11/25 08:34:05;;;;;;;6.07;2.33;;;7.90;99.90;;;;;;5053318;28;20130;-68
2022/11/25 08:36:33;;;;;;;6.63;2.20;;;7.90;99.90;;;;;;5053458;28;20099;-64
2022/11/25 08:39:00;;;;;;;4.05;1.33;;;7.90;99.90;;;;;;5053374;28;20064;-71
2022/11/25 08:41:33;;;;;;;2.10;1.42;;;8.00;99.90;;;;;;5035199;28;20036;-70
2022/11/25 08:44:01;;;;;;;3.20;1.70;;;8.00;99.90;;;;;;5053322;28;20083;-67
2022/11/25 08:46:32;;;;;;;2.67;1.40;;;8.00;99.90;;;;;;5053282;28;20045;-67
2022/11/25 08:48:58;;;;;;;5.28;1.58;;;8.10;99.90;;;;;;5052912;28;20048;-67
2022/11/25 08:51:27;;;;;;;2.72;1.40;;;8.10;99.90;;;;;;5053188;28;20475;-69
2022/11/25 08:53:53;;;;;;;4.70;1.73;;;8.20;99.90;;;;;;5035306;28;20081;-67
2022/11/25 08:56:20;;;;;;;5.45;1.73;;;8.20;99.90;;;;;;5053140;28;20131;-69
2022/11/25 08:58:47;;;;;;;4.75;2.15;;;8.10;99.90;;;;;;5054681;28;20519;-71
2022/11/25 09:01:13;;;;;;;7.68;1.67;;;8.20;99.90;;;;;;5057299;28;20495;-67
2022/11/25 09:03:42;;;;;;;8.32;2.08;;;8.10;99.90;;;;;;5057219;28;20029;-66
2022/11/25 09:06:09;;;;;;;5.03;1.50;;;8.20;99.90;;;;;;5056854;28;20126;-66
2022/11/25 09:08:35;;;;;;;6.63;2.20;;;8.20;99.90;;;;;;5056738;28;20037;-67
2022/11/25 09:11:00;;;;;;;2.85;1.80;;;7.90;99.90;;;;;;5039012;28;20041;-66
2022/11/25 09:13:26;;;;;;;6.30;2.05;;;8.70;99.90;;;;;;5057057;28;20076;-67
2022/11/25 09:15:52;;;;;;;6.57;2.47;;;8.30;99.90;;;;;;5057007;28;20437;-67
2022/11/25 09:18:19;;;;;;;5.47;2.08;;;8.30;99.90;;;;;;5056953;28;20507;-66
2022/11/25 09:20:46;;;;;;;3.75;1.80;;;8.50;99.90;;;;;;5056609;28;20045;-67
2022/11/25 09:23:12;;;;;;;3.55;2.13;;;8.30;99.90;;;;;;5056870;28;20045;-69
2022/11/25 09:25:37;;;;;;;4.10;1.80;;;8.30;99.90;;;;;;5038816;28;20041;-66
2022/11/25 09:28:04;;;;;;;6.28;1.92;;;9.00;99.90;;;;;;5056823;28;20052;-67
2022/11/25 09:30:30;;;;;;;3.17;1.70;;;8.40;99.90;;;;;;5056473;28;20079;-68
2022/11/25 09:32:56;;;;;;;3.33;1.98;;;8.40;99.90;;;;;;5038601;28;20098;-67
2022/11/25 09:35:23;;;;;;;7.38;2.50;;;8.30;99.90;;;;;;5056457;28;20040;-69
2022/11/25 09:37:49;;;;;;;3.78;2.17;;;8.40;99.90;;;;;;5056712;28;20045;-68
2022/11/25 09:40:35;;;;;;;3.45;1.85;;;8.50;99.90;;;;;;5056718;28;20407;-68
2022/11/25 09:48:44;;;;;;;6.00;2.45;;;;;;;;;;5056582;28;20123;-68
2022/11/25 09:51:24;;;;;;;3.40;1.73;;;;;;;;;;5056576;28;20041;-69
2022/11/25 09:53:57;;;;;;;3.92;1.98;;;8.90;99.90;;;;;;5056119;28;20041;-69
2022/11/25 09:56:42;;;;;;;6.43;2.00;;;;;;;;;;5056346;28;20163;-69
2022/11/25 09:59:19;;;;;;;3.72;1.77;;;;;;;;;;5055981;28;20096;-68
2022/11/25 10:02:12;;;;;;;4.20;1.60;;;;;;;;;;5038397;28;20098;-70
2022/11/25 10:04:42;;;;;;;7.72;1.90;;;;;;;;;;5056074;28;20041;-68
2022/11/25 10:07:13;;;;;;;5.50;2.27;;;;;;;;;;5038149;28;20037;-69
2022/11/25 10:09:39;;;;;;;7.40;2.42;;;;;;;;;;5037778;28;20339;-70
2022/11/25 10:12:11;;;;;;;4.57;2.00;;;;;;;;;;5055470;28;20091;-69
2022/11/25 10:14:51;;;;;;;4.18;2.00;;;;;;;;;;5055692;28;20041;-68
2022/11/25 10:17:23;;;;;;;4.10;2.30;;;;;;;;;;5055925;28;20079;-68
2022/11/25 10:20:00;;;;;;;7.40;2.45;;;9.30;99.90;;;;;;5055549;28;20132;-68
2022/11/25 10:22:40;;;;;;;2.90;1.85;;;9.20;99.90;;;;;;5055761;28;20237;-68
2022/11/25 10:25:21;;;;;;;2.78;1.45;;;9.40;99.90;;;;;;5037591;28;20040;-69
2022/11/25 10:28:00;;;;;;;7.10;2.60;;;9.20;99.90;;;;;;5055688;28;20041;-68
2022/11/25 10:30:43;;;;;;;3.03;1.45;;;9.30;99.90;;;;;;5037429;28;20106;-68
2022/11/25 10:33:19;;;;;;;2.55;1.33;;;9.30;99.90;;;;;;5055638;28;20036;-68
2022/11/25 10:36:09;;;;;;;4.38;1.92;;;9.30;99.90;;;;;;5055569;28;20040;-69
2022/11/25 10:39:12;;;;;;;3.85;1.77;;;9.30;99.90;;;;;;5055539;28;20041;-68
2022/11/25 10:41:47;;;;;;;11.00;1.85;;;9.40;99.90;;;;;;5055197;28;20066;-68
2022/11/25 10:44:40;;;;;;;5.57;1.88;;;9.40;99.90;;;;;;5055369;28;20049;-69
2022/11/25 10:47:44;;;;;;;2.63;1.20;;;9.50;99.90;;;;;;5053445;28;20102;-68
2022/11/25 10:50:53;;;;;;;3.10;1.30;;;9.50;99.90;;;;;;5054395;28;20048;-69
2022/11/25 10:53:25;;;;;;;3.05;1.60;;;9.60;99.90;;;;;;5055284;28;20037;-68
2022/11/25 10:56:16;;;;;;;2.88;1.65;;;9.60;99.90;;;;;;5037479;28;20143;-68
2022/11/25 10:58:41;;;;;;;6.03;1.42;;;9.60;99.90;;;;;;5036969;28;20060;-68
2022/11/25 11:01:19;;;;;;;4.75;1.77;;;;;;;;;;5055244;28;20060;-68
2022/11/25 11:03:50;;;;;;;3.17;1.58;;;;;;;;;;5020504;28;20047;-68
2022/11/25 11:06:30;;;;;;;2.47;1.48;;;;;;;;;;5055091;28;20055;-68
2022/11/25 11:08:57;;;;;;;5.25;1.73;;;;;;;;;;5055018;28;20065;-69
2022/11/25 11:11:23;;;;;;;6.38;2.28;;;;;;;;;;5054927;28;20505;-68
2022/11/25 11:13:58;;;;;;;2.55;1.30;;;10.10;99.90;;;;;;5054973;28;20065;-69
2022/11/25 11:16:33;;;;;;;3.72;1.25;;;10.10;99.90;;;;;;5036749;28;20122;-69
2022/11/25 11:18:59;;;;;;;9.20;1.77;;;10.10;99.90;;;;;;5054816;28;20139;-68
2022/11/25 11:21:29;;;;;;;5.05;2.08;;;10.20;99.90;;;;;;5054150;28;20029;-68
2022/11/25 11:23:56;;;;;;;8.93;1.45;;;10.20;99.90;;;;;;5036509;28;20056;-69
2022/11/25 11:26:29;;;;;;;5.43;1.40;;;10.30;99.90;;;;;;5036724;28;20503;-67
2022/11/25 11:29:02;;;;;;;2.75;1.20;;;10.30;99.90;;;;;;5054464;28;20041;-68
2022/11/25 11:31:34;;;;;;;3.63;1.20;;;10.30;99.90;;;;;;5054554;28;20127;-68
2022/11/25 11:34:12;;;;;;;4.32;1.35;;;10.20;99.90;;;;;;5054529;28;20045;-68
2022/11/25 11:36:47;;;;;;;4.28;1.10;;;10.50;99.90;;;;;;5054095;28;20040;-69
2022/11/25 11:39:19;;;;;;;1.60;0.93;;;10.50;99.90;;;;;;5036521;28;20098;-69
2022/11/25 11:42:00;;;;;;;2.75;1.27;;;10.60;99.90;;;;;;5054317;28;20040;-69
2022/11/25 11:44:54;;;;;;;2.38;1.10;;;10.60;99.90;;;;;;5054261;28;20502;-69
2022/11/25 11:47:26;;;;;;;11.30;1.83;;;10.70;99.90;;;;;;5053875;28;20045;-68
2022/11/25 11:49:55;;;;;;;4.32;1.35;;;;;;;;;;5053804;28;20068;-70
2022/11/25 11:52:26;;;;;;;7.90;1.27;;;11.40;99.90;;;;;;5035970;28;20044;-70
2022/11/25 11:54:59;;;;;;;2.30;1.02;;;11.70;99.90;;;;;;5053772;28;20049;-70
2022/11/25 11:57:28;;;;;;;1.38;0.73;;;11.90;99.90;;;;;;5036275;28;20125;-69
2022/11/25 12:00:03;;;;;;;2.80;1.20;;;12.20;99.90;;;;;;5053762;28;20075;-68
2022/11/25 12:02:32;;;;;;;6.05;1.83;;;12.30;99.90;;;;;;5053668;28;20045;-68
2022/11/25 12:05:03;;;;;;;9.80;1.95;;;12.40;99.90;;;;;;5053901;28;20121;-68
2022/11/25 12:07:50;;;;;;;12.27;3.25;;;12.30;99.90;;;;;;5053571;28;20129;-69
2022/11/25 12:10:21;;;;;;;2.55;1.00;;;12.10;99.90;;;;;;5053712;28;20568;-68
2022/11/25 12:13:23;;;;;;;4.60;1.23;;;11.90;99.90;;;;;;5053813;28;20102;-68
2022/11/25 12:16:14;;;;;;;5.53;0.75;;;11.60;99.90;;;;;;5035882;28;20494;-68
2022/11/25 12:18:48;;;;;;;4.87;1.30;;;11.40;99.90;;;;;;5053771;28;20033;-69
2022/11/25 12:21:32;;;;;;;3.85;1.45;;;11.40;99.90;;;;;;5053660;28;20037;-69
2022/11/25 12:24:09;;;;;;;2.40;1.02;;;11.40;99.90;;;;;;5053361;28;20043;-68
2022/11/25 12:27:05;;;;;;;4.82;1.25;;;11.40;99.90;;;;;;5053596;28;20033;-69
2022/11/25 12:29:34;;;;;;;4.28;1.60;;;11.30;99.90;;;;;;5053487;28;20545;-68
2022/11/25 12:32:34;;;;;;;1.80;1.27;;;11.30;99.90;;;;;;5053256;28;20052;-69
2022/11/25 12:35:05;;;;;;;4.95;1.45;;;11.10;99.90;;;;;;5053121;28;20484;-69
2022/11/25 12:37:38;;;;;;;2.45;1.00;;;11.00;99.90;;;;;;5053405;28;20044;-69
2022/11/25 12:40:17;;;;;;;6.10;1.67;;;11.00;99.90;;;;;;5053189;28;20115;-69
2022/11/25 12:42:45;;;;;;;4.45;1.27;;;10.70;99.90;;;;;;5035325;28;20128;-69
2022/11/25 12:45:21;;;;;;;2.58;0.95;;;10.70;99.90;;;;;;5035267;28;20099;-69
2022/11/25 12:47:47;;;;;;;4.03;1.05;;;10.60;99.90;;;;;;5019012;28;20373;-69
2022/11/25 12:50:16;;;;;;;6.15;0.93;;;;;;;;;;5053196;28;20182;-69
2022/11/25 12:52:53;;;;;;;2.15;0.70;;;;;;;;;;5053290;28;20034;-69
2022/11/25 12:55:19;;;;;;;3.70;0.90;;;;;;;;;;5053266;28;20147;-69
2022/11/25 12:57:51;;;;;;;6.95;1.00;;;;;;;;;;5053167;28;20029;-69
2022/11/25 13:00:24;;;;;;;4.35;1.17;;;;;;;;;;5052806;28;20068;-69
2022/11/25 13:02:53;;;;;;;2.47;0.75;;;;;;;;;;5035349;28;20452;-69
2022/11/25 13:05:19;;;;;;;3.75;0.98;;;;;;;;;;5035029;28;20045;-69
2022/11/25 13:07:58;;;;;;;2.95;1.00;;;;;;;;;;5053107;28;20396;-69
2022/11/25 13:10:36;;;;;;;3.95;1.23;;;;;;;;;;5052838;28;20049;-68
2022/11/25 13:13:08;;;;;;;7.70;1.33;;;;;;;;;;5052750;28;20041;-68
2022/11/25 13:15:45;;;;;;;3.00;1.15;;;;;;;;;;5053054;28;20041;-69
2022/11/25 13:18:13;;;;;;;6.63;1.10;;;;;;;;;;5053039;28;20119;-69
2022/11/25 13:20:47;;;;;;;4.43;1.10;;;;;;;;;;5053069;28;20463;-68
2022/11/25 13:23:16;;;;;;;5.35;1.38;;;;;;;;;;5035097;28;20102;-69
2022/11/25 13:25:44;;;;;;;7.05;1.08;;;;;;;;;;5052838;28;20040;-68
2022/11/25 13:28:29;;;;;;;2.92;1.02;;;;;;;;;;5034818;28;20095;-68
2022/11/25 13:30:55;;;;;;;3.00;1.10;;;;;;;;;;5052719;28;20476;-68